createdAt,value
2019-02-21T08:51:18.447Z,8.10
2019-02-21T08:53:47.644Z,8.30
2019-02-21T08:56:17.695Z,8.30
2019-02-21T08:58:46.581Z,8.40
2019-02-21T09:01:15.577Z,8.50
2019-02-21T09:03:44.424Z,8.60
2019-02-21T09:06:13.381Z,8.70
2019-02-21T09:08:42.405Z,8.70
2019-02-21T09:11:11.422Z,8.70
2019-02-21T09:13:41.662Z,8.70
2019-02-21T09:18:39.501Z,8.70
2019-02-21T09:23:37.015Z,8.90
2019-02-21T09:31:02.818Z,9.30
2019-02-21T09:36:00.351Z,9.30
2019-02-21T09:50:54.588Z,9.70
2019-02-21T09:55:51.989Z,9.70
2019-02-21T10:47:53.104Z,10.40
2019-02-21T10:50:22.123Z,10.70
2019-02-21T10:52:51.186Z,10.90
2019-02-21T10:57:48.695Z,11.00
2019-02-21T11:00:26.582Z,11.10
2019-02-21T11:02:55.608Z,11.20
2019-02-21T11:10:23.817Z,11.30
2019-02-21T11:12:52.852Z,11.30
2019-02-21T11:15:23.009Z,11.20
2019-02-21T11:17:52.036Z,11.30
2019-02-21T11:20:21.208Z,11.50
2019-02-21T11:22:50.264Z,11.60
2019-02-21T11:27:47.668Z,11.60
2019-02-21T11:30:17.686Z,11.60
2019-02-21T11:35:15.506Z,11.60
2019-02-21T12:34:49.240Z,13.00
2019-02-21T12:37:18.173Z,13.10
2019-02-21T12:39:47.197Z,13.10
2019-02-21T12:42:16.120Z,13.20
2019-02-21T12:44:47.712Z,13.30
2019-02-21T12:47:15.744Z,13.10
2019-02-21T12:49:44.684Z,12.90
2019-02-21T12:52:13.568Z,12.80
2019-02-21T12:54:42.941Z,12.70
2019-02-21T12:57:11.839Z,12.80
2019-02-21T12:59:40.737Z,12.90
2019-02-21T13:02:09.741Z,12.90
2019-02-21T13:04:38.793Z,12.90
2019-02-21T13:07:07.968Z,12.90
2019-02-21T13:09:37.156Z,12.80
2019-02-21T13:12:06.116Z,12.80
2019-02-21T13:14:35.196Z,12.70
2019-02-21T13:17:04.249Z,12.60
2019-02-21T13:19:33.328Z,12.60
2019-02-21T13:22:02.202Z,12.60
2019-02-21T13:24:31.288Z,12.60
2019-02-21T13:27:00.312Z,12.60
2019-02-21T13:29:29.395Z,12.60
2019-02-21T13:31:58.318Z,12.60
2019-02-21T13:34:27.313Z,12.70
2019-02-21T13:36:56.182Z,12.90
2019-02-21T13:39:25.103Z,12.70
2019-02-21T13:41:54.261Z,12.80
2019-02-21T13:44:23.183Z,12.80
2019-02-21T13:46:53.626Z,12.70
2019-02-21T13:49:22.689Z,12.70
2019-02-21T13:51:51.611Z,12.60
2019-02-21T13:54:20.541Z,12.70
2019-02-21T13:56:49.453Z,12.60
2019-02-21T13:59:18.463Z,12.50
2019-02-21T14:01:47.655Z,12.50
2019-02-21T14:04:16.701Z,12.50
2019-02-21T14:06:45.751Z,12.50
2019-02-21T14:09:14.907Z,12.50
2019-02-21T14:11:43.892Z,12.50
2019-02-21T14:14:12.881Z,12.50
2019-02-21T14:16:46.599Z,12.50
2019-02-21T14:19:12.544Z,12.50
2019-02-21T14:21:43.661Z,12.50
2019-02-21T14:24:12.308Z,12.60
2019-02-21T14:26:41.219Z,12.60
2019-02-21T14:29:10.257Z,12.60
2019-02-21T14:31:39.301Z,12.60
2019-02-21T14:34:08.412Z,12.70
2019-02-21T14:36:37.381Z,12.70
2019-02-21T14:39:06.744Z,12.60
2019-02-21T14:41:35.677Z,12.70
2019-02-21T14:44:06.643Z,12.70
2019-02-21T14:46:36.412Z,12.70
2019-02-21T14:49:05.525Z,12.60
2019-02-21T14:51:34.504Z,12.60
2019-02-21T14:54:03.517Z,12.60
2019-02-21T14:56:32.523Z,12.60
2019-02-21T14:59:01.561Z,12.60
2019-02-21T15:01:30.411Z,12.60
2019-02-21T15:03:59.474Z,12.50
2019-02-21T15:06:28.559Z,12.50
2019-02-21T15:08:57.498Z,12.50
2019-02-21T15:11:26.539Z,12.50
2019-02-21T15:13:55.558Z,12.40
2019-02-21T15:16:24.499Z,12.30
2019-02-21T15:18:58.507Z,12.30
2019-02-21T15:21:27.536Z,12.30
2019-02-21T15:23:56.600Z,12.30
2019-02-21T15:26:25.624Z,12.30
2019-02-21T15:28:54.942Z,12.20
2019-02-21T15:31:24.010Z,12.20
2019-02-21T15:33:54.248Z,12.10
2019-02-21T15:36:25.296Z,12.10
2019-02-21T15:38:54.391Z,12.10
2019-02-21T15:41:25.715Z,12.00
2019-02-21T15:43:54.702Z,12.00
2019-02-21T15:46:23.911Z,11.90
2019-02-21T15:48:55.005Z,11.90
2019-02-21T15:53:54.198Z,11.90
2019-02-21T15:56:23.256Z,11.80
2019-02-21T15:58:53.419Z,11.80
2019-02-21T16:01:22.371Z,11.80
2019-02-21T16:03:52.440Z,11.80
2019-02-21T16:06:21.330Z,11.70
2019-02-21T16:08:50.244Z,11.70
2019-02-21T16:11:25.336Z,11.70
2019-02-21T16:14:02.696Z,11.70
2019-02-21T16:18:58.583Z,11.70
2019-02-21T16:21:26.580Z,11.60
2019-02-21T16:23:56.061Z,11.60
2019-02-21T16:26:25.250Z,11.60
2019-02-21T16:28:54.864Z,11.50
2019-02-21T16:31:23.947Z,11.50
2019-02-21T16:33:53.063Z,11.50
2019-02-21T16:36:24.091Z,11.50
2019-02-21T16:38:53.376Z,11.40
2019-02-21T16:41:22.567Z,11.40
2019-02-21T16:43:51.831Z,11.40
2019-02-21T16:46:21.812Z,11.40
2019-02-21T16:48:50.906Z,11.40
2019-02-21T16:51:22.168Z,11.40
